Latest Coastal Weather Observations for Avalon

IDV60701

Issued at 8:42 pm EDT Thursday 21 October 2021 (issued every 10 minutes, with the page automatically refreshed every 10 minutes)

About coastal observations | Map of coastal stations | Coastal observations for VIC | Marine services | Other Formats
Station Details ID: 087113 Name: AVALON AIRPORT Lat: -38.03 Lon: 144.48 Height: 10.6 m
Data from the previous 72 hours. | See also: Recent months at Avalon
Date/Time
EDT
Wind Sea
Height
m
Swell Vis
km
Cloud Weather Temp
°C
Press
MSL
hPa
Rain since
9am
mm
Dir  Spd
kts
Gust
kts
Height
m
Period
s
Dir
21/08:30pm NE 8 10 - - - - 10 Cloudy - 19.4 1013.1 0.0
21/08:00pm NE 9 12 - - - - 10 Partly cloudy - 20.3 1012.8 0.0
21/07:30pm NNE 8 11 - - - - 10 - - 20.8 1012.7 0.0
21/07:00pm NE 9 11 - - - - 10 - - 21.2 1012.6 0.0
21/06:30pm NNE 9 12 - - - - 10 - - 22.1 1012.6 0.0
21/06:00pm NNE 10 12 - - - - 10 Mostly cloudy - 22.6 1012.4 0.0
21/05:30pm NNE 11 15 - - - - 10 Partly cloudy - 23.1 1012.2 0.0
21/05:00pm NNE 9 11 - - - - 10 Partly cloudy - 23.4 1012.2 0.0
21/04:30pm N 7 9 - - - - 10 Cloudy - 23.1 1012.3 0.0
21/04:00pm N 9 11 - - - - 10 Partly cloudy - 22.8 1012.5 0.0
21/03:30pm N 10 13 - - - - 10 Cloudy - 22.6 1012.6 0.0
21/03:00pm NNE 12 16 - - - - 10 Mostly cloudy - 22.9 1012.7 0.0
21/02:30pm N 10 22 - - - - 10 Partly cloudy - 24.4 1012.9 0.0
21/02:00pm NNE 9 13 - - - - 10 Partly cloudy - 24.0 1013.2 0.0
21/01:30pm N 7 10 - - - - 10 Cloudy - 22.2 1013.3 0.0
21/01:00pm N 8 11 - - - - 10 Partly cloudy - 21.1 1013.6 0.0
21/12:30pm N 13 16 - - - - 10 Cloudy - 21.5 1013.7 0.0
21/12:00pm NNE 9 13 - - - - 10 Mostly cloudy - 22.6 1013.7 0.0
21/11:30am NNE 12 16 - - - - 10 Cloudy - 21.7 1014.2 0.0
21/11:00am NNE 13 17 - - - - 10 - - 20.3 1014.5 0.0
21/10:30am NNE 12 16 - - - - 10 - - 20.2 1014.4 0.0
21/10:00am NNE 13 17 - - - - 10 - - 19.9 1014.5 0.0
21/09:30am NNE 14 18 - - - - 10 - - 18.8 1014.3 0.0
21/09:00am NNE 10 16 - - - - 10 Mostly cloudy - 17.9 1014.3 0.0
21/08:30am NE 12 14 - - - - 10 - - 17.1 1014.2 0.0
21/08:00am NE 8 10 - - - - 10 - - 16.1 1014.4 0.0
21/07:30am ENE 8 11 - - - - 10 - - 15.0 1014.2 0.0
21/07:00am ENE 8 11 - - - - 10 - - 14.0 1014.0 0.0
21/06:30am NNE 2 5 - - - - 10 - - 13.3 1013.9 0.0
21/06:00am ENE 10 13 - - - - 10 Cloudy - 14.0 1013.3 0.0
21/05:30am ENE 11 14 - - - - 10 - - 14.1 1013.4 0.0
21/05:00am NE 6 7 - - - - 10 - - 13.0 1013.5 0.0
21/04:30am ENE 8 10 - - - - 10 - - 14.1 1013.5 0.0
21/04:00am ENE 7 8 - - - - 10 - - 13.8 1013.5 0.0
21/03:30am ENE 5 8 - - - - 10 - - 13.8 1013.7 0.0
21/03:00am E 8 9 - - - - 10 Partly cloudy - 13.6 1013.6 0.0
21/02:30am E 7 9 - - - - 10 - - 13.0 1013.8 0.0
21/02:00am E 5 6 - - - - 10 - - 11.9 1014.1 0.0
21/01:30am E 4 5 - - - - 10 - - 11.6 1014.6 0.0
21/01:00am WNW 1 3 - - - - 10 - - 12.5 1015.0 0.0
21/12:30am ENE 5 7 - - - - 10 - - 13.9 1015.3 0.0
21/12:00am E 7 9 - - - - 10 - - 13.7 1015.2 0.0
 
Date/Time
EDT
Wind Sea
Height
m
Swell Vis
km
Cloud Weather Temp
°C
Press
MSL
hPa
Rain since
9am
mm
Dir  Spd
kts
Gust
kts
Height
m
Period
s
Dir
20/11:30pm E 8 11 - - - - 10 - - 13.6 1015.3 0.0
20/11:00pm E 7 8 - - - - 10 - - 13.6 1015.9 0.0
20/10:30pm ENE 7 9 - - - - 10 - - 14.4 1016.2 0.0
20/10:00pm ENE 8 12 - - - - 10 - - 15.1 1016.4 0.0
20/09:30pm E 11 15 - - - - 10 - - 15.1 1016.3 0.0
20/09:00pm E 13 17 - - - - 10 - - 15.8 1016.2 0.0
20/08:30pm E 13 19 - - - - 10 - - 16.3 1015.7 0.0
20/08:00pm E 11 15 - - - - 10 - - 16.5 1015.6 0.0
20/07:30pm E 11 14 - - - - 10 - - 17.1 1015.4 0.0
20/07:00pm ESE 11 13 - - - - 10 - - 17.7 1015.4 0.0
20/06:30pm ESE 11 16 - - - - 10 - - 18.7 1015.4 0.0
20/06:00pm ESE 13 16 - - - - 10 - - 19.6 1015.3 0.0
20/05:30pm ESE 12 16 - - - - 10 - - 20.5 1015.3 0.0
20/05:00pm ESE 12 15 - - - - 10 - - 21.0 1015.7 0.0
20/04:30pm ESE 12 16 - - - - 10 - - 21.3 1015.9 0.0
20/04:00pm ESE 13 17 - - - - 10 - - 21.1 1016.4 0.0
20/03:30pm ESE 14 18 - - - - 10 - - 21.0 1016.7 0.0
20/03:00pm ESE 12 16 - - - - 10 - - 20.7 1017.2 0.0
20/02:30pm ESE 12 15 - - - - 10 - - 20.6 1017.9 0.0
20/02:00pm ESE 11 15 - - - - 10 - - 19.8 1018.6 0.0
20/01:30pm ESE 11 15 - - - - 10 - - 18.5 1018.9 0.0
20/01:00pm ESE 12 14 - - - - 10 - - 18.6 1019.3 0.0
20/12:30pm ESE 12 14 - - - - 10 - - 18.0 1019.7 0.0
20/12:00pm E 11 14 - - - - 10 - - 18.1 1020.0 0.0
20/11:30am E 10 14 - - - - 10 - - 17.2 1020.3 0.0
20/11:00am E 9 14 - - - - 10 - - 17.1 1020.8 0.0
20/10:30am ENE 7 11 - - - - 10 Partly cloudy - 16.3 1021.2 0.0
20/10:02am ENE 10 13 - - - - 10 Partly cloudy - 15.4 1021.5 0.0
20/10:00am ENE 11 13 - - - - 10 Partly cloudy - 15.5 1021.5 0.0
20/09:30am E 12 16 - - - - 10 Partly cloudy - 14.8 1021.6 0.0
20/09:00am ENE 16 21 - - - - 10 Partly cloudy - 14.4 1021.5 0.6
20/08:32am E 15 19 - - - - 10 Partly cloudy - 13.7 1022.1 0.6
20/08:30am E 15 19 - - - - 10 Partly cloudy - 13.7 1022.2 0.6
20/08:00am E 16 21 - - - - 10 - - 13.2 1022.4 0.6
20/07:30am E 15 22 - - - - 10 - - 12.6 1022.4 0.6
20/07:00am E 16 23 - - - - 10 Partly cloudy - 11.9 1022.3 0.6
20/06:30am E 14 19 - - - - 10 Partly cloudy - 11.6 1022.1 0.6
20/06:00am E 14 19 - - - - 10 Mostly clear - 11.6 1022.1 0.6
20/05:30am E 13 18 - - - - 10 - - 11.6 1022.1 0.6
20/05:00am E 14 19 - - - - 10 - - 11.7 1021.8 0.6
20/04:30am E 13 18 - - - - 10 - - 11.4 1021.7 0.6
20/04:00am E 14 20 - - - - 10 Partly cloudy - 11.5 1022.1 0.6
20/03:30am E 11 15 - - - - 10 Partly cloudy - 11.5 1022.5 0.6
20/03:00am ESE 10 14 - - - - 10 Partly cloudy - 11.1 1023.0 0.6
20/02:30am E 9 12 - - - - 10 Partly cloudy - 11.2 1023.1 0.6
20/02:00am E 7 9 - - - - 10 Partly cloudy - 10.9 1023.8 0.6
20/01:30am ESE 10 12 - - - - 10 - - 11.3 1024.0 0.6
20/01:00am ESE 10 16 - - - - 10 - - 11.6 1024.3 0.6
20/12:30am ESE 15 22 - - - - 10 - - 12.1 1023.7 0.6
20/12:00am ESE 15 21 - - - - 10 - - 12.1 1023.8 0.6
 
Date/Time
EDT
Wind Sea
Height
m
Swell Vis
km
Cloud Weather Temp
°C
Press
MSL
hPa
Rain since
9am
mm
Dir  Spd
kts
Gust
kts
Height
m
Period
s
Dir
19/11:30pm ESE 14 19 - - - - 10 - - 12.4 1024.2 0.6
19/11:00pm ESE 16 21 - - - - 10 - - 12.5 1024.1 0.6
19/10:30pm ESE 15 20 - - - - 10 - - 12.4 1024.6 0.6
19/10:00pm ESE 17 25 - - - - 10 - - 12.6 1024.3 0.6
19/09:58pm ESE 15 25 - - - - 10 - - 12.6 1024.3 0.6
19/09:30pm SE 14 20 - - - - 10 - - 12.6 1024.1 0.6
19/09:00pm SE 9 12 - - - - 10 - - 12.5 1023.9 0.6
19/08:30pm SSE 8 12 - - - - 10 - - 12.4 1023.6 0.6
19/08:00pm SSE 10 13 - - - - 10 Partly cloudy - 12.6 1023.6 0.6
19/07:30pm S 9 12 - - - - 10 Partly cloudy - 13.5 1023.5 0.6
19/07:00pm SE 11 16 - - - - 10 Partly cloudy - 13.4 1022.9 0.6
19/06:30pm SE 13 18 - - - - 10 Partly cloudy - 14.4 1023.1 0.6
19/06:00pm SSE 14 18 - - - - 10 Partly cloudy - 15.1 1022.5 0.6
19/05:30pm SSE 13 17 - - - - 10 Partly cloudy - 15.1 1022.9 0.6
19/05:00pm S 16 21 - - - - 10 Partly cloudy - 15.5 1023.0 0.6
19/04:30pm SSE 18 22 - - - - 10 Partly cloudy - 16.1 1023.3 0.6
19/04:00pm SSE 17 24 - - - - 10 Partly cloudy - 15.8 1023.2 0.6
19/03:30pm SSE 16 23 - - - - 10 - - 16.7 1022.9 0.6
19/03:00pm SE 17 21 - - - - 10 Mostly clear Rain 16.9 1022.6 0.6
19/02:30pm SSE 16 21 - - - - 10 - - 16.6 1022.9 0.4
19/02:00pm SE 14 18 - - - - 10 Partly cloudy - 16.8 1022.9 0.4
19/01:30pm SSE 11 14 - - - - 10 Partly cloudy - 15.9 1023.1 0.4
19/01:00pm S 7 9 - - - - 10 Partly cloudy - 14.4 1023.3 0.4
19/12:30pm SSW 8 11 - - - - 10 Partly cloudy - 13.8 1023.4 0.4
19/12:20pm S 9 14 - - - - 10 Partly cloudy - 13.5 1023.3 0.4
19/12:00pm SSW 13 17 - - - - 5 Cloudy Rain 12.6 1023.4 0.4
19/11:30am SSW 11 14 - - - - 10 Partly cloudy - 14.4 1023.3 0.0
19/11:00am S 11 15 - - - - 10 Partly cloudy - 14.3 1023.3 0.0
19/10:30am S 11 15 - - - - 10 Partly cloudy - 13.5 1023.3 0.0
19/10:00am SSW 14 17 - - - - 10 Partly cloudy - 13.5 1023.0 0.0
19/09:30am SSW 13 16 - - - - 10 Partly cloudy - 12.9 1022.9 0.0
19/09:00am WSW 7 10 - - - - 10 Mostly cloudy - 11.6 1022.8 0.8
19/08:30am W 7 9 - - - - 10 Cloudy - 10.2 1022.7 0.8
19/08:00am WSW 7 9 - - - - 10 Cloudy - 10.2 1022.2 0.8
19/07:30am W 8 9 - - - - 10 Cloudy - 9.1 1021.6 0.8
19/07:00am W 8 10 - - - - 10 Partly cloudy - 8.3 1021.0 0.8
19/06:30am WNW 6 9 - - - - 10 Partly cloudy - 7.9 1020.5 0.8
19/06:00am WNW 7 8 - - - - 10 Cloudy Recent precip. 7.7 1020.1 0.8
19/05:32am W 7 7 - - - - 10 Partly cloudy - 7.7 1019.8 0.8
19/05:30am W 6 7 - - - - 10 Partly cloudy - 7.8 1019.7 0.8
19/05:04am W 7 10 - - - - 6 Partly cloudy - 8.1 1019.7 0.4
19/05:00am W 7 9 - - - - 10 Partly cloudy - 7.9 1019.7 0.2
19/04:30am W 7 8 - - - - 10 Partly cloudy - 6.6 1019.4 0.2
19/04:00am WNW 5 6 - - - - 10 Partly cloudy - 7.5 1019.3 0.2
19/03:38am WNW 6 8 - - - - 10 Partly cloudy - 8.3 1019.3 0.2
19/03:30am WNW 7 8 - - - - 8 Partly cloudy - 8.4 1019.5 0.2
19/03:23am W 7 8 - - - - 6 Partly cloudy - 8.4 1019.6 0.2
19/03:00am W 6 8 - - - - 10 Cloudy - 8.1 1019.6 0.0
19/02:30am WNW 7 8 - - - - 10 Partly cloudy - 7.1 1019.7 0.0
19/02:00am W 8 8 - - - - 10 Partly cloudy - 7.0 1019.6 0.0
19/01:30am W 8 9 - - - - 10 - - 7.7 1019.5 0.0
19/01:00am W 8 9 - - - - 10 Partly cloudy - 7.5 1019.4 0.0
19/12:30am W 7 8 - - - - 10 - - 7.6 1019.2 0.0
19/12:00am W 6 7 - - - - 10 - - 7.5 1019.0 0.0
 
Date/Time
EDT
Wind Sea
Height
m
Swell Vis
km
Cloud Weather Temp
°C
Press
MSL
hPa
Rain since
9am
mm
Dir  Spd
kts
Gust
kts
Height
m
Period
s
Dir
18/11:30pm W 7 8 - - - - 10 - - 7.9 1018.9 0.0
18/11:00pm W 7 8 - - - - 10 - - 8.4 1018.9 0.0
18/10:30pm W 6 7 - - - - 10 - - 9.3 1018.6 0.0
18/10:00pm WSW 7 9 - - - - 10 Partly cloudy - 11.0 1018.5 0.0
18/09:30pm SW 8 10 - - - - 10 Partly cloudy - 11.1 1018.2 0.0
18/09:00pm SSW 10 15 - - - - 10 Cloudy Rain 11.6 1017.8 0.0

Other formats

Comma delimited format used in spreadsheet applications
http://www.bom.gov.au/fwo/IDV60701/IDV60701.94854.axf

JavaScript Object Notation format (JSON) in row-major order
http://www.bom.gov.au/fwo/IDV60701/IDV60701.94854.json

Data quality

Most of these data are generated automatically and are frequently updated. Quality checks on data are not normally performed. It is possible for incorrect values to appear. Refer to information at About Latest Weather Observations and please check the disclaimer before using these data.